SHT2B EGLL-EGCC
Flight info
| Callsign | SHT2B |
|---|---|
| Flight time | 0h 31m |
| Altitude | 16000 |
| Route | ULTIB T420 ELVOS |
| Aircraft | A319/M-SDE3FGHIRWY/LB1 |
Departure
| Time | 2026-04-30 20:11 |
|---|---|
| Airport | London Heathrow Airport (EGLL) |
Arrival
| Time | 2026-04-30 20:43 |
|---|---|
| Airport | Manchester Airport (EGCC) |
| Time | Latitude | Longitude | Altitude | Speed | Heading |
|---|---|---|---|---|---|
| 2026-04-30 19:53 | 51.47087 | -0.48587 | 89 ft | 0 kts | 269° |
| 2026-04-30 19:53 | 51.47087 | -0.48586 | 90 ft | 0 kts | 270° |
| 2026-04-30 20:02 | 51.47088 | -0.48508 | 86 ft | 4 kts | 257° |
| 2026-04-30 20:02 | 51.47099 | -0.48476 | 89 ft | 4 kts | 200° |
| 2026-04-30 20:03 | 51.47126 | -0.48472 | 88 ft | 0 kts | 180° |
| 2026-04-30 20:07 | 51.47092 | -0.48471 | 89 ft | 8 kts | 179° |
| 2026-04-30 20:08 | 51.47024 | -0.48471 | 86 ft | 11 kts | 180° |
| 2026-04-30 20:08 | 51.46935 | -0.48470 | 86 ft | 15 kts | 179° |
| 2026-04-30 20:08 | 51.46838 | -0.48468 | 86 ft | 8 kts | 179° |
| 2026-04-30 20:08 | 51.46792 | -0.48469 | 86 ft | 8 kts | 180° |
| 2026-04-30 20:09 | 51.46729 | -0.48469 | 86 ft | 11 kts | 180° |
| 2026-04-30 20:09 | 51.46645 | -0.48468 | 86 ft | 14 kts | 179° |
| 2026-04-30 20:09 | 51.46479 | -0.48428 | 89 ft | 0 kts | 94° |
| 2026-04-30 20:10 | 51.46479 | -0.48420 | 89 ft | 0 kts | 91° |
| 2026-04-30 20:10 | 51.46479 | -0.48419 | 88 ft | 1 kts | 91° |
| 2026-04-30 20:10 | 51.46479 | -0.48338 | 87 ft | 25 kts | 91° |
| 2026-04-30 20:11 | 51.46487 | -0.46382 | 93 ft | 145 kts | 90° |
| 2026-04-30 20:11 | 51.46465 | -0.44750 | 685 ft | 146 kts | 91° |
| 2026-04-30 20:11 | 51.46458 | -0.43109 | 1377 ft | 149 kts | 91° |
| 2026-04-30 20:12 | 51.47375 | -0.39595 | 2217 ft | 207 kts | 57° |
| 2026-04-30 20:12 | 51.48375 | -0.37782 | 2736 ft | 232 kts | 49° |
| 2026-04-30 20:12 | 51.49910 | -0.36519 | 3282 ft | 269 kts | 17° |
| 2026-04-30 20:13 | 51.51841 | -0.36336 | 4183 ft | 284 kts | 1° |
| 2026-04-30 20:13 | 51.53827 | -0.36363 | 5254 ft | 288 kts | 0° |
| 2026-04-30 20:13 | 51.55836 | -0.36337 | 5736 ft | 289 kts | 1° |
| 2026-04-30 20:13 | 51.57839 | -0.36301 | 5939 ft | 288 kts | 1° |
| 2026-04-30 20:14 | 51.59816 | -0.36273 | 6005 ft | 288 kts | 1° |
| 2026-04-30 20:14 | 51.61822 | -0.36255 | 6010 ft | 288 kts | 1° |
| 2026-04-30 20:14 | 51.63825 | -0.36263 | 6092 ft | 288 kts | 358° |
| 2026-04-30 20:14 | 51.65764 | -0.37040 | 6095 ft | 289 kts | 338° |
| 2026-04-30 20:15 | 51.67622 | -0.38282 | 6093 ft | 289 kts | 336° |
| 2026-04-30 20:15 | 51.69469 | -0.39563 | 6092 ft | 289 kts | 336° |
| 2026-04-30 20:15 | 51.71314 | -0.40852 | 6171 ft | 292 kts | 336° |
| 2026-04-30 20:15 | 51.73175 | -0.42158 | 7118 ft | 292 kts | 336° |
| 2026-04-30 20:16 | 51.75045 | -0.43482 | 8094 ft | 296 kts | 336° |
| 2026-04-30 20:16 | 51.76948 | -0.44834 | 9005 ft | 301 kts | 336° |
| 2026-04-30 20:16 | 51.78883 | -0.46213 | 9967 ft | 307 kts | 336° |
| 2026-04-30 20:16 | 51.80847 | -0.47698 | 10633 ft | 322 kts | 334° |
| 2026-04-30 20:17 | 51.82915 | -0.49397 | 10977 ft | 345 kts | 332° |
| 2026-04-30 20:17 | 51.85085 | -0.51253 | 11568 ft | 357 kts | 332° |
| 2026-04-30 20:17 | 51.87298 | -0.53166 | 12333 ft | 364 kts | 332° |
| 2026-04-30 20:17 | 51.89549 | -0.55115 | 13123 ft | 369 kts | 332° |
| 2026-04-30 20:18 | 51.91829 | -0.57079 | 13906 ft | 374 kts | 332° |
| 2026-04-30 20:18 | 51.94144 | -0.59061 | 14608 ft | 379 kts | 332° |
| 2026-04-30 20:18 | 51.96490 | -0.61059 | 15320 ft | 382 kts | 332° |
| 2026-04-30 20:18 | 51.98862 | -0.63074 | 16039 ft | 386 kts | 332° |
| 2026-04-30 20:19 | 52.01253 | -0.65104 | 16759 ft | 390 kts | 332° |
| 2026-04-30 20:19 | 52.03639 | -0.67126 | 17466 ft | 393 kts | 332° |
| 2026-04-30 20:19 | 52.06072 | -0.69192 | 18026 ft | 397 kts | 332° |
| 2026-04-30 20:19 | 52.08523 | -0.71281 | 18188 ft | 399 kts | 332° |
| 2026-04-30 20:20 | 52.10994 | -0.73396 | 18229 ft | 402 kts | 332° |
| 2026-04-30 20:20 | 52.13471 | -0.75526 | 18225 ft | 403 kts | 332° |
| 2026-04-30 20:20 | 52.15950 | -0.77663 | 18219 ft | 403 kts | 332° |
| 2026-04-30 20:20 | 52.18427 | -0.79799 | 18215 ft | 403 kts | 332° |
| 2026-04-30 20:21 | 52.20910 | -0.81939 | 18219 ft | 403 kts | 332° |
| 2026-04-30 20:21 | 52.23388 | -0.84075 | 18223 ft | 403 kts | 332° |
| 2026-04-30 20:21 | 52.25857 | -0.86246 | 18223 ft | 403 kts | 330° |
| 2026-04-30 20:21 | 52.28279 | -0.88542 | 18224 ft | 403 kts | 329° |
| 2026-04-30 20:22 | 52.30668 | -0.90925 | 18220 ft | 402 kts | 327° |
| 2026-04-30 20:22 | 52.33044 | -0.93351 | 18223 ft | 402 kts | 327° |
| 2026-04-30 20:22 | 52.35410 | -0.95781 | 18237 ft | 402 kts | 327° |
| 2026-04-30 20:22 | 52.37782 | -0.98201 | 18241 ft | 402 kts | 327° |
| 2026-04-30 20:23 | 52.40167 | -1.00611 | 18245 ft | 402 kts | 328° |
| 2026-04-30 20:23 | 52.42553 | -1.03007 | 18239 ft | 403 kts | 328° |
| 2026-04-30 20:23 | 52.44948 | -1.05402 | 18184 ft | 403 kts | 328° |
| 2026-04-30 20:23 | 52.47351 | -1.07799 | 18172 ft | 404 kts | 328° |
| 2026-04-30 20:24 | 52.49753 | -1.10201 | 18162 ft | 404 kts | 328° |
| 2026-04-30 20:24 | 52.52149 | -1.12606 | 18148 ft | 404 kts | 328° |
| 2026-04-30 20:24 | 52.54544 | -1.15018 | 18140 ft | 404 kts | 328° |
| 2026-04-30 20:24 | 52.56915 | -1.17413 | 18134 ft | 404 kts | 328° |
| 2026-04-30 20:25 | 52.61708 | -1.22256 | 18125 ft | 404 kts | 328° |
| 2026-04-30 20:25 | 52.64104 | -1.24682 | 18124 ft | 404 kts | 328° |
| 2026-04-30 20:26 | 52.68895 | -1.29532 | 18123 ft | 404 kts | 328° |
| 2026-04-30 20:26 | 52.73692 | -1.34411 | 18260 ft | 404 kts | 328° |
| 2026-04-30 20:26 | 52.76084 | -1.36848 | 18255 ft | 404 kts | 328° |
| 2026-04-30 20:27 | 52.80872 | -1.41731 | 18261 ft | 404 kts | 327° |
| 2026-04-30 20:27 | 52.85533 | -1.46504 | 17621 ft | 386 kts | 327° |
| 2026-04-30 20:28 | 52.90066 | -1.51157 | 16538 ft | 380 kts | 327° |
| 2026-04-30 20:28 | 52.94532 | -1.55744 | 15466 ft | 376 kts | 327° |
| 2026-04-30 20:29 | 52.98922 | -1.60273 | 14406 ft | 372 kts | 327° |
| 2026-04-30 20:30 | 53.05357 | -1.67226 | 12822 ft | 361 kts | 317° |
| 2026-04-30 20:30 | 53.10114 | -1.76165 | 12181 ft | 327 kts | 308° |
| 2026-04-30 20:31 | 53.14408 | -1.84460 | 11149 ft | 318 kts | 308° |
| 2026-04-30 20:32 | 53.18002 | -1.93403 | 10065 ft | 304 kts | 282° |
| 2026-04-30 20:32 | 53.19071 | -2.00178 | 9275 ft | 300 kts | 280° |
| 2026-04-30 20:33 | 53.19582 | -2.03536 | 8897 ft | 298 kts | 281° |
| 2026-04-30 20:33 | 53.20584 | -2.10224 | 8147 ft | 296 kts | 280° |
| 2026-04-30 20:33 | 53.21078 | -2.13552 | 7775 ft | 295 kts | 281° |
| 2026-04-30 20:34 | 53.21757 | -2.20140 | 7263 ft | 279 kts | 266° |
| 2026-04-30 20:34 | 53.21702 | -2.26504 | 6874 ft | 270 kts | 259° |
| 2026-04-30 20:35 | 53.21275 | -2.29515 | 6630 ft | 264 kts | 245° |
| 2026-04-30 20:35 | 53.20556 | -2.32279 | 6354 ft | 261 kts | 241° |
| 2026-04-30 20:35 | 53.19013 | -2.37705 | 5767 ft | 254 kts | 240° |
| 2026-04-30 20:36 | 53.18268 | -2.40298 | 5464 ft | 248 kts | 240° |
| 2026-04-30 20:36 | 53.17532 | -2.42860 | 5170 ft | 242 kts | 240° |
| 2026-04-30 20:36 | 53.17195 | -2.48256 | 4557 ft | 243 kts | 278° |
| 2026-04-30 20:37 | 53.17644 | -2.50961 | 4243 ft | 245 kts | 290° |
| 2026-04-30 20:37 | 53.18729 | -2.53134 | 3993 ft | 246 kts | 324° |
| 2026-04-30 20:37 | 53.20290 | -2.54128 | 3822 ft | 237 kts | 354° |
| 2026-04-30 20:37 | 53.21872 | -2.53852 | 3645 ft | 224 kts | 24° |
| 2026-04-30 20:38 | 53.23150 | -2.52563 | 3469 ft | 209 kts | 50° |
| 2026-04-30 20:38 | 53.24060 | -2.50770 | 3343 ft | 199 kts | 57° |
| 2026-04-30 20:38 | 53.24904 | -2.49052 | 3233 ft | 185 kts | 58° |
| 2026-04-30 20:39 | 53.26465 | -2.45854 | 2839 ft | 173 kts | 60° |
| 2026-04-30 20:39 | 53.27216 | -2.44313 | 2615 ft | 169 kts | 60° |
| 2026-04-30 20:39 | 53.27951 | -2.42803 | 2385 ft | 165 kts | 61° |
| 2026-04-30 20:40 | 53.29353 | -2.39930 | 1939 ft | 145 kts | 63° |
| 2026-04-30 20:40 | 53.29946 | -2.38716 | 1761 ft | 130 kts | 64° |
| 2026-04-30 20:40 | 53.30500 | -2.37571 | 1587 ft | 125 kts | 63° |
| 2026-04-30 20:41 | 53.31583 | -2.35333 | 1266 ft | 122 kts | 61° |
| 2026-04-30 20:41 | 53.32115 | -2.34233 | 1098 ft | 122 kts | 60° |
| 2026-04-30 20:41 | 53.32648 | -2.33133 | 940 ft | 121 kts | 57° |
| 2026-04-30 20:41 | 53.33182 | -2.32045 | 766 ft | 120 kts | 55° |
| 2026-04-30 20:42 | 53.33709 | -2.30944 | 587 ft | 122 kts | 54° |
| 2026-04-30 20:42 | 53.34229 | -2.29832 | 416 ft | 121 kts | 50° |
| 2026-04-30 20:42 | 53.35254 | -2.27752 | 238 ft | 92 kts | 51° |
| 2026-04-30 20:43 | 53.35549 | -2.27141 | 252 ft | 37 kts | 50° |
| 2026-04-30 20:43 | 53.35643 | -2.27108 | 257 ft | 15 kts | 326° |
| 2026-04-30 20:43 | 53.35700 | -2.27188 | 255 ft | 1 kts | 321° |
| 2026-04-30 20:44 | 53.35727 | -2.27224 | 255 ft | 7 kts | 321° |
| 2026-04-30 20:44 | 53.35774 | -2.27297 | 255 ft | 11 kts | 297° |
| 2026-04-30 20:44 | 53.35704 | -2.27497 | 252 ft | 0 kts | 233° |
| 2026-04-30 20:45 | 53.35748 | -2.27653 | 250 ft | 13 kts | 341° |
| 2026-04-30 20:45 | 53.35825 | -2.27734 | 252 ft | 14 kts | 342° |
| 2026-04-30 20:45 | 53.35919 | -2.27726 | 255 ft | 15 kts | 3° |
| 2026-04-30 20:46 | 53.36196 | -2.28034 | 255 ft | 20 kts | 318° |
| 2026-04-30 20:46 | 53.36272 | -2.28163 | 255 ft | 16 kts | 315° |
| 2026-04-30 20:47 | 53.36405 | -2.28421 | 255 ft | 15 kts | 289° |
| 2026-04-30 20:47 | 53.36472 | -2.28575 | 255 ft | 18 kts | 314° |
| 2026-04-30 20:48 | 53.36616 | -2.28867 | 255 ft | 0 kts | 314° |
| 2026-04-30 20:51 | 53.36617 | -2.28868 | 255 ft | 1 kts | 314° |
| 2026-04-30 20:51 | 53.36622 | -2.28877 | 255 ft | 1 kts | 314° |
| 2026-04-30 20:52 | 53.36624 | -2.28880 | 255 ft | 0 kts | 314° |
| 2026-04-30 20:52 | 53.36626 | -2.28885 | 255 ft | 2 kts | 312° |
| 2026-04-30 20:52 | 53.36602 | -2.28973 | 255 ft | 4 kts | 225° |
| 2026-04-30 20:53 | 53.36592 | -2.28989 | 255 ft | 0 kts | 224° |